LFGE weather

Avallon Airport
Colmar, Burgundy, France

Public forecast

Using degrees Celsius for public forecast. Weather courtesy of forecast.io.

METAR (pilot weather report)

Report is more than 6 hours old.

Closest report is Nevers-Fourchambault Airport, 43.9 nm (81.3 km) SW. Retrieved 2019/07/19 18:00 UTC (9 hours ago):

LFQG 191800Z AUTO 27005KT 250V320 CAVOK 28/12 Q1014

TAF (pilot weather forecast)

Forecast is more than 12 hours old.

Closest forecast is Dijon-Bourgogne Airport, 50.4 nm (93.3 km) ESE. Retrieved 2015/06/01 00:11 UTC (4 years ago):

TAF LFSD 010600Z 0100/0124 CNL